createdAt,value
2022-09-23T00:03:02.891Z,14.1
2022-09-23T00:08:01.713Z,14.5
2022-09-23T00:13:02.929Z,14.2
2022-09-23T00:18:01.739Z,14.0
2022-09-23T00:23:01.900Z,13.0
2022-09-23T00:28:01.719Z,12.8
2022-09-23T00:33:01.756Z,12.7
2022-09-23T00:38:01.825Z,12.1
2022-09-23T00:43:01.738Z,12.4
2022-09-23T00:48:01.745Z,13.1
2022-09-23T00:53:01.839Z,13.3
2022-09-23T00:58:01.845Z,12.7
2022-09-23T01:03:01.760Z,13.1
2022-09-23T01:08:01.717Z,12.7
2022-09-23T01:35:07.972Z,6.0
2022-09-23T01:40:01.647Z,8.6
2022-09-23T01:45:09.471Z,9.5
2022-09-23T02:00:08.471Z,10.6
2022-09-23T02:05:01.626Z,10.4
2022-09-23T02:10:01.665Z,10.1
2022-09-23T02:15:04.236Z,10.1
2022-09-23T02:20:01.766Z,9.8
2022-09-23T02:25:01.704Z,9.7
2022-09-23T02:30:09.107Z,9.3
2022-09-23T02:35:01.635Z,9.0
2022-09-23T02:40:17.649Z,8.8
2022-09-23T02:45:01.972Z,8.6
2022-09-23T02:50:01.418Z,6.8
2022-09-23T02:55:01.715Z,7.6
2022-09-23T03:00:03.334Z,8.2
2022-09-23T03:05:07.001Z,8.2
2022-09-23T03:10:01.140Z,8.2
2022-09-23T03:15:16.890Z,10.0
2022-09-23T03:20:01.149Z,9.6
2022-09-23T03:30:02.986Z,9.2
2022-09-23T03:35:01.871Z,9.5
2022-09-23T03:45:04.439Z,9.2
2022-09-23T03:50:01.528Z,9.7
2022-09-23T03:55:01.769Z,10.1
2022-09-23T04:00:04.279Z,10.2
2022-09-23T04:10:01.640Z,10.8
2022-09-23T04:15:03.007Z,10.7
2022-09-23T04:20:01.612Z,10.3
2022-09-23T04:25:01.679Z,9.9
2022-09-23T04:30:02.804Z,10.1
2022-09-23T04:35:01.841Z,11.5
2022-09-23T04:40:01.764Z,12.3
2022-09-23T04:45:02.410Z,13.8
2022-09-23T04:50:01.706Z,14.8
2022-09-23T04:55:01.798Z,15.2
2022-09-23T05:00:02.958Z,13.6
2022-09-23T05:05:10.130Z,13.0
2022-09-23T05:10:01.731Z,12.2
2022-09-23T05:15:02.421Z,12.3
2022-09-23T05:20:04.738Z,13.2
2022-09-23T05:25:01.714Z,15.2
2022-09-23T05:30:02.114Z,16.3
2022-09-23T05:35:01.771Z,17.1
2022-09-23T05:40:02.235Z,17.4
2022-09-23T05:45:02.078Z,16.7
2022-09-23T05:50:01.641Z,15.8
2022-09-23T05:55:02.303Z,15.8
2022-09-23T06:00:03.003Z,16.4
2022-09-23T06:05:02.120Z,16.7
2022-09-23T06:10:02.215Z,17.2
2022-09-23T06:15:02.331Z,17.1
2022-09-23T06:20:02.457Z,16.8
2022-09-23T06:25:02.282Z,16.5
2022-09-23T06:30:02.076Z,15.8
2022-09-23T06:35:01.838Z,15.9
2022-09-23T06:45:02.437Z,15.8
2022-09-23T06:50:03.152Z,15.4
2022-09-23T06:55:02.075Z,15.9
2022-09-23T07:00:02.451Z,15.9
2022-09-23T07:05:01.963Z,16.0
2022-09-23T07:10:01.530Z,15.6
2022-09-23T07:15:02.393Z,15.5
2022-09-23T07:20:02.772Z,14.7
2022-09-23T07:25:01.194Z,14.0
2022-09-23T07:30:02.266Z,13.8
2022-09-23T07:35:02.149Z,13.7
2022-09-23T07:40:02.468Z,13.3
2022-09-23T07:45:02.310Z,13.7
2022-09-23T07:50:02.330Z,14.2
2022-09-23T07:55:03.210Z,14.2
2022-09-23T08:00:02.898Z,14.1
2022-09-23T08:05:02.217Z,14.2
2022-09-23T08:10:02.729Z,13.8
2022-09-23T08:15:02.060Z,13.7
2022-09-23T08:20:01.693Z,13.9
2022-09-23T08:25:01.715Z,13.5
2022-09-23T08:30:02.321Z,13.3
2022-09-23T08:35:01.809Z,12.9
2022-09-23T08:40:01.804Z,12.5
2022-09-23T08:45:04.412Z,11.9
2022-09-23T08:50:02.077Z,11.5
2022-09-23T08:55:01.828Z,11.1
2022-09-23T09:00:03.220Z,11.0
2022-09-23T09:05:06.739Z,11.1
2022-09-23T09:10:01.750Z,10.6
2022-09-23T09:15:17.347Z,10.3
2022-09-23T09:20:01.675Z,9.9
2022-09-23T09:25:01.734Z,9.2
2022-09-23T09:30:02.153Z,8.6
2022-09-23T09:35:01.616Z,8.6
2022-09-23T09:40:01.691Z,8.6
2022-09-23T09:45:05.290Z,8.1
2022-09-23T09:50:07.270Z,7.8
2022-09-23T09:55:01.608Z,7.2
2022-09-23T10:00:17.137Z,5.6
2022-09-23T10:05:01.541Z,4.8
2022-09-23T10:15:02.335Z,3.9
2022-09-23T10:20:04.060Z,3.3
2022-09-23T10:25:01.588Z,3.9
2022-09-23T10:30:03.887Z,3.4
2022-09-23T10:35:01.651Z,3.1
2022-09-23T10:40:13.235Z,2.8
2022-09-23T10:45:16.528Z,2.7
2022-09-23T10:50:07.659Z,2.1
2022-09-23T11:00:12.558Z,2.4
2022-09-23T11:05:01.864Z,2.2
2022-09-23T11:15:15.015Z,2.3
2022-09-23T11:25:01.854Z,2.1
2022-09-23T11:30:06.838Z,2.3
2022-09-23T11:35:17.345Z,2.5
2022-09-23T11:40:01.689Z,2.7
2022-09-23T11:45:08.053Z,2.8
2022-09-23T11:50:01.713Z,2.7
2022-09-23T11:55:21.790Z,2.7
2022-09-23T12:00:04.321Z,2.5
2022-09-23T12:05:08.905Z,2.5
2022-09-23T12:10:01.581Z,2.5
2022-09-23T12:15:06.570Z,2.8
2022-09-23T12:25:01.746Z,2.9
2022-09-23T12:30:04.566Z,2.7
2022-09-23T12:35:01.613Z,2.5
2022-09-23T12:40:01.615Z,2.5
2022-09-23T12:45:17.383Z,2.3
2022-09-23T12:50:01.702Z,1.7
2022-09-23T12:55:01.710Z,1.9
2022-09-23T13:00:17.246Z,1.9
2022-09-23T13:10:01.706Z,1.9
2022-09-23T13:15:03.922Z,2.5
2022-09-23T13:30:16.589Z,2.6
2022-09-23T13:35:01.695Z,2.6
2022-09-23T13:40:01.569Z,2.4
2022-09-23T13:45:02.379Z,2.8
2022-09-23T13:50:01.843Z,2.9
2022-09-23T13:55:01.874Z,3.1
2022-09-23T14:00:17.803Z,3.2
2022-09-23T14:05:01.691Z,3.6
2022-09-23T14:10:01.835Z,3.2
2022-09-23T14:15:02.335Z,3.2
2022-09-23T14:20:01.673Z,3.0
2022-09-23T14:30:03.498Z,2.9
2022-09-23T14:35:01.791Z,2.9
2022-09-23T14:40:04.709Z,3.3
2022-09-23T14:45:04.426Z,3.7
2022-09-23T14:50:01.613Z,4.2
2022-09-23T14:55:01.834Z,4.1
2022-09-23T15:00:13.058Z,4.2
2022-09-23T15:05:01.363Z,3.8
2022-09-23T15:15:01.685Z,3.5
2022-09-23T15:20:04.224Z,3.5
2022-09-23T15:25:01.740Z,3.4
2022-09-23T15:30:15.813Z,3.4
2022-09-23T15:35:01.834Z,3.4
2022-09-23T15:40:01.774Z,3.6
2022-09-23T15:45:02.290Z,3.5
2022-09-23T15:50:01.832Z,3.5
2022-09-23T15:55:01.815Z,3.8
2022-09-23T16:00:02.603Z,3.8
2022-09-23T16:05:02.260Z,4.0
2022-09-23T16:11:01.846Z,4.1
2022-09-23T16:16:02.786Z,4.3
2022-09-23T16:21:02.208Z,4.4
2022-09-23T16:26:04.049Z,5.1
2022-09-23T16:31:01.835Z,5.6
2022-09-23T16:36:01.767Z,6.3
2022-09-23T16:41:02.095Z,7.6
2022-09-23T16:46:02.199Z,8.3
2022-09-23T16:51:03.410Z,8.3
2022-09-23T17:01:01.977Z,8.9
2022-09-23T17:06:08.542Z,9.1
2022-09-23T17:11:02.260Z,9.6
2022-09-23T17:16:02.552Z,10.9
2022-09-23T17:21:03.865Z,13.6
2022-09-23T17:26:02.342Z,14.8
2022-09-23T17:31:03.217Z,15.6
2022-09-23T17:36:06.860Z,17.1
2022-09-23T17:41:02.329Z,18.8
2022-09-23T17:46:04.787Z,19.5
2022-09-23T17:51:01.734Z,20.7
2022-09-23T17:56:01.818Z,23.0
2022-09-23T18:01:02.066Z,23.8
2022-09-23T18:06:07.123Z,23.4
2022-09-23T18:11:02.055Z,22.8
2022-09-23T18:16:01.985Z,22.8
2022-09-23T18:21:01.818Z,21.6
2022-09-23T18:26:01.813Z,22.3
2022-09-23T18:31:01.719Z,22.6
2022-09-23T18:36:07.446Z,22.5
2022-09-23T18:41:01.980Z,22.4
2022-09-23T18:46:02.045Z,22.4
2022-09-23T18:51:01.914Z,22.6
2022-09-23T18:56:06.614Z,23.1
2022-09-23T19:01:02.258Z,24.1
2022-09-23T19:06:01.780Z,24.6
2022-09-23T19:11:01.745Z,25.0
2022-09-23T19:16:02.075Z,24.2
2022-09-23T19:21:07.397Z,23.7
2022-09-23T19:26:01.717Z,23.0
2022-09-23T19:31:01.785Z,22.8
2022-09-23T19:36:01.826Z,22.8
2022-09-23T19:46:01.823Z,22.6
2022-09-23T19:51:01.740Z,22.6
2022-09-23T19:56:01.795Z,22.6
2022-09-23T20:01:01.803Z,22.5
2022-09-23T20:06:01.689Z,22.7
2022-09-23T20:11:01.527Z,22.6
2022-09-23T20:16:02.841Z,22.4
2022-09-23T20:21:02.452Z,22.2
2022-09-23T20:26:01.514Z,22.2
2022-09-23T20:31:01.773Z,22.2
2022-09-23T20:36:01.806Z,22.2
2022-09-23T20:41:01.785Z,22.6
2022-09-23T20:46:02.909Z,22.8
2022-09-23T20:51:01.786Z,22.6
2022-09-23T20:56:01.822Z,22.4
2022-09-23T21:01:02.188Z,23.0
2022-09-23T21:06:01.887Z,23.4
2022-09-23T21:11:01.767Z,23.0
2022-09-23T21:16:01.801Z,23.1
2022-09-23T21:21:02.741Z,23.3
2022-09-23T21:26:01.821Z,22.8
2022-09-23T21:31:01.962Z,22.4
2022-09-23T21:36:01.749Z,22.8
2022-09-23T21:51:01.776Z,22.5
2022-09-23T21:56:06.747Z,22.3
2022-09-23T22:01:02.176Z,21.5
2022-09-23T22:06:01.873Z,21.0
2022-09-23T22:11:01.769Z,20.4
2022-09-23T22:16:01.995Z,18.6
2022-09-23T22:21:01.857Z,18.4
2022-09-23T22:26:03.898Z,18.7
2022-09-23T22:31:02.016Z,18.8
2022-09-23T22:36:01.833Z,19.0
2022-09-23T22:41:02.089Z,20.2
2022-09-23T22:46:01.658Z,20.1
2022-09-23T22:51:01.658Z,19.9
2022-09-23T22:56:01.517Z,19.3
2022-09-23T23:01:01.455Z,19.0
2022-09-23T23:06:01.564Z,18.8
2022-09-23T23:11:01.418Z,17.6
2022-09-23T23:16:01.665Z,17.4
2022-09-23T23:21:01.840Z,17.6
2022-09-23T23:26:09.769Z,17.5
2022-09-23T23:31:01.512Z,17.6
2022-09-23T23:36:01.812Z,18.3
2022-09-23T23:41:01.755Z,17.5
2022-09-23T23:51:01.707Z,17.5
2022-09-23T23:56:01.885Z,17.6
